Meteorología y climatología de Navarra
Datos de la estación - Meteo Navarra

Estación de Tudela (Montes del Cierzo) GN

Altitud 314 m.


Datos desde el 09/11/2018 hasta el 10/11/2018 en horario solar
Los datos son PROVISIONALES

Anterior Página 1 de 1 Siguiente Descargar: Formato para Excel 2000 o superior   Formato csv   Formato para OpenOffice Calc
Fecha Temperatura Humedad relativa Radiación global Insolación Precipitación Velocidad viento 10 m Velocidad viento 10 m Dirección viento 10 m
ºC % W/m² s l/m² m/s km/h º
09/11/2018 0:00 8.7 98 0.0 0 0.0 3.9 14.1 360
09/11/2018 0:10 8.6 98 0.0 0 0.0 2.7 9.8 358
09/11/2018 0:20 8.6 98 0.0 0 0.0 2.1 7.6 347
09/11/2018 0:30 8.6 98 0.0 0 0.0 2.0 7.1 355
09/11/2018 0:40 8.5 98 0.0 0 0.0 2.0 7.2 312
09/11/2018 0:50 8.3 98 0.0 0 0.0 1.8 6.5 296
09/11/2018 1:00 8.3 98 0.0 0 0.0 2.6 9.3 257
09/11/2018 1:10 8.2 98 0.0 0 0.0 3.2 11.5 257
09/11/2018 1:20 8.1 99 0.0 0 0.0 2.1 7.5 267
09/11/2018 1:30 7.9 99 0.0 0 0.0 2.2 7.8 262
09/11/2018 1:40 7.7 99 0.0 0 0.0 2.3 8.4 276
09/11/2018 1:50 7.9 99 0.0 0 0.0 2.9 10.3 330
09/11/2018 2:00 8.1 99 0.0 0 0.0 2.6 9.5 312
09/11/2018 2:10 7.9 99 0.0 0 0.0 2.3 8.4 294
09/11/2018 2:20 7.7 99 0.0 0 0.0 2.1 7.6 298
09/11/2018 2:30 7.8 99 0.0 0 0.0 1.9 6.9 280
09/11/2018 2:40 7.9 99 0.0 0 0.0 2.2 7.9 264
09/11/2018 2:50 7.9 99 0.0 0 0.0 2.3 8.4 294
09/11/2018 3:00 8.0 99 0.0 0 0.0 2.7 9.6 299
09/11/2018 3:10 7.9 99 0.0 0 0.0 2.7 9.7 285
09/11/2018 3:20 7.9 99 0.0 0 0.0 3.3 11.9 276
09/11/2018 3:30 8.0 99 0.0 0 0.0 2.7 9.8 278
09/11/2018 3:40 7.9 99 0.0 0 0.0 3.0 10.8 298
09/11/2018 3:50 7.6 99 0.0 0 0.0 3.1 11.1 304
09/11/2018 4:00 7.5 99 0.0 0 0.0 3.3 11.7 307
09/11/2018 4:10 7.4 99 0.0 0 0.0 2.4 8.5 324
09/11/2018 4:20 7.3 99 0.0 0 0.0 2.8 10.1 325
09/11/2018 4:30 7.1 99 0.0 0 0.0 2.5 9.0 323
09/11/2018 4:40 7.0 99 0.0 0 0.0 2.5 8.9 315
09/11/2018 4:50 6.8 99 0.0 0 0.0 2.3 8.3 304
09/11/2018 5:00 6.6 99 0.0 0 0.0 2.4 8.5 296
09/11/2018 5:10 6.6 99 0.0 0 0.0 3.0 10.9 306
09/11/2018 5:20 6.7 99 0.0 0 0.0 3.7 13.1 305
09/11/2018 5:30 6.7 99 0.0 0 0.0 3.8 13.6 302
09/11/2018 5:40 6.8 98 0.0 0 0.0 4.4 15.8 301
09/11/2018 5:50 6.8 97 0.0 0 0.0 4.0 14.4 299
09/11/2018 6:00 6.8 95 0.0 0 0.0 3.6 13.0 300
09/11/2018 6:10 6.6 94 0.0 0 0.0 4.3 15.4 305
09/11/2018 6:20 7.0 91 0.0 0 0.0 4.1 14.6 301
09/11/2018 6:30 6.9 90 0.0 0 0.0 4.0 14.4 292
09/11/2018 6:40 6.8 90 0.0 0 0.0 3.5 12.7 293
09/11/2018 6:50 6.9 90 0.0 0 0.0 3.2 11.3 291
09/11/2018 7:00 7.0 89 0.0 0 0.0 2.4 8.5 297
09/11/2018 7:10 7.0 89 0.0 0 0.0 2.5 8.8 302
09/11/2018 7:20 7.1 89 8.7 0 0.0 2.4 8.5 292
09/11/2018 7:30 7.2 88 24.1 0 0.0 2.5 9.0 268
09/11/2018 7:40 7.4 88 26.7 0 0.0 2.3 8.3 263
09/11/2018 7:50 7.4 87 26.8 0 0.0 2.3 8.4 266
09/11/2018 8:00 7.5 86 33.2 0 0.0 1.9 6.9 303
09/11/2018 8:10 7.6 85 51.9 0 0.0 2.0 7.2 288
09/11/2018 8:20 7.7 85 46.7 24 0.0 2.3 8.1 293
09/11/2018 8:30 8.3 84 234.9 600 0.0 1.8 6.4 278
09/11/2018 8:40 9.7 78 312.5 600 0.0 1.7 6.2 287
09/11/2018 8:50 10.1 76 174.0 296 0.0 3.1 11.1 297
09/11/2018 9:00 9.6 77 153.8 132 0.0 3.4 12.2 299
09/11/2018 9:10 9.7 76 208.5 600 0.0 4.5 16.2 298
09/11/2018 9:20 10.1 76 200.3 594 0.0 3.7 13.2 304
09/11/2018 9:30 10.3 74 210.1 308 0.0 4.1 14.9 308
09/11/2018 9:40 10.4 74 227.7 600 0.0 3.8 13.8 304
09/11/2018 9:50 10.8 73 274.2 600 0.0 4.3 15.4 309
09/11/2018 10:00 10.9 71 274.2 600 0.0 4.8 17.4 312
09/11/2018 10:10 11.4 70 354.8 600 0.0 4.8 17.2 307
09/11/2018 10:20 11.8 68 289.7 490 0.0 5.2 18.8 304
09/11/2018 10:30 11.8 67 254.9 266 0.0 5.4 19.3 304
09/11/2018 10:40 12.1 67 392.4 420 0.0 5.3 19.0 301
09/11/2018 10:50 13.1 64 508.2 600 0.0 5.0 17.9 299
09/11/2018 11:00 13.4 61 501.5 600 0.0 4.6 16.6 306
09/11/2018 11:10 13.6 58 494.3 600 0.0 5.7 20.6 308
09/11/2018 11:20 13.7 58 487.3 600 0.0 5.5 19.6 313
09/11/2018 11:30 13.8 57 482.6 600 0.0 5.8 20.8 314
09/11/2018 11:40 13.9 56 479.5 600 0.0 5.2 18.8 322
09/11/2018 11:50 14.1 56 477.6 600 0.0 5.1 18.3 330
09/11/2018 12:00 14.3 56 477.2 600 0.0 4.6 16.6 335
09/11/2018 12:10 14.4 52 480.2 600 0.0 5.0 17.9 337
09/11/2018 12:20 14.7 52 485.8 600 0.0 5.1 18.2 339
09/11/2018 12:30 14.7 52 491.1 600 0.0 5.2 18.8 343
09/11/2018 12:40 14.7 51 494.3 600 0.0 4.9 17.7 337
09/11/2018 12:50 14.9 52 492.9 600 0.0 4.4 15.7 341
09/11/2018 13:00 14.8 52 488.3 600 0.0 4.5 16.3 336
09/11/2018 13:10 15.2 51 461.2 600 0.0 3.6 12.8 327
09/11/2018 13:20 15.3 51 470.8 600 0.0 3.5 12.6 334
09/11/2018 13:30 15.5 50 451.1 564 0.0 2.8 10.0 335
09/11/2018 13:40 15.0 53 356.9 480 0.0 3.5 12.7 346
09/11/2018 13:50 15.7 51 426.8 600 0.0 2.3 8.1 318
09/11/2018 14:00 15.8 49 415.2 600 0.0 2.1 7.5 332
09/11/2018 14:10 15.7 50 411.4 580 0.0 1.8 6.3 312
09/11/2018 14:20 15.3 52 272.7 366 0.0 2.0 7.3 337
09/11/2018 14:30 15.3 51 371.2 600 0.0 2.2 7.9 311
09/11/2018 14:40 15.5 52 337.8 600 0.0 2.1 7.5 352
09/11/2018 14:50 15.0 53 276.3 562 0.0 2.3 8.1 345
09/11/2018 15:00 15.1 53 275.1 600 0.0 1.8 6.4 360
09/11/2018 15:10 14.8 54 243.3 600 0.0 1.6 5.8 12
09/11/2018 15:20 14.8 55 216.3 600 0.0 1.7 6.0 359
09/11/2018 15:30 14.7 55 188.2 600 0.0 2.3 8.2 349
09/11/2018 15:40 14.3 57 161.6 600 0.0 2.3 8.1 353
09/11/2018 15:50 13.8 60 134.5 600 0.0 1.9 6.7 343
09/11/2018 16:00 13.3 61 42.6 94 0.0 1.9 6.8 343
09/11/2018 16:10 12.6 64 22.3 0 0.0 1.7 6.3 345
09/11/2018 16:20 12.4 65 18.0 0 0.0 1.9 6.9 343
09/11/2018 16:30 12.1 66 1.0 0 0.0 1.7 5.9 347
09/11/2018 16:40 11.5 68 0.0 0 0.0 1.1 4.1 332
09/11/2018 16:50 10.8 73 0.0 0 0.0 1.6 5.8 192
09/11/2018 17:00 10.0 72 0.0 0 0.0 2.5 8.9 189
09/11/2018 17:10 9.5 71 0.0 0 0.0 2.1 7.5 199
09/11/2018 17:20 9.7 67 0.0 0 0.0 1.3 4.6 197
09/11/2018 17:30 9.7 67 0.0 0 0.0 2.1 7.4 204
09/11/2018 17:40 8.8 73 0.0 0 0.0 2.7 9.6 205
09/11/2018 17:50 8.9 77 0.0 0 0.0 3.2 11.7 211
09/11/2018 18:00 9.5 76 0.0 0 0.0 2.9 10.5 220
09/11/2018 18:10 9.8 75 0.0 0 0.0 2.8 10.2 222
09/11/2018 18:20 10.1 72 0.0 0 0.0 2.9 10.5 217
09/11/2018 18:30 10.3 71 0.0 0 0.0 3.1 11.3 208
09/11/2018 18:40 10.6 68 0.0 0 0.0 3.4 12.3 209
09/11/2018 18:50 10.7 67 0.0 0 0.0 3.5 12.6 209
09/11/2018 19:00 10.6 67 0.0 0 0.0 3.3 11.7 207
09/11/2018 19:10 10.4 68 0.0 0 0.0 3.1 11.3 206
09/11/2018 19:20 10.3 68 0.0 0 0.0 3.2 11.6 200
09/11/2018 19:30 10.5 67 0.0 0 0.0 3.3 11.7 203
09/11/2018 19:40 10.9 65 0.0 0 0.0 3.0 10.6 202
09/11/2018 19:50 10.9 66 0.0 0 0.0 3.0 10.8 207
09/11/2018 20:00 10.8 68 0.0 0 0.0 3.2 11.5 217
09/11/2018 20:10 10.8 70 0.0 0 0.0 3.2 11.6 216
09/11/2018 20:20 10.6 71 0.0 0 0.0 3.1 11.3 215
09/11/2018 20:30 11.1 68 0.0 0 0.0 3.9 14.0 216
09/11/2018 20:40 11.3 67 0.0 0 0.0 4.0 14.4 207
09/11/2018 20:50 11.6 66 0.0 0 0.0 4.7 16.7 216
09/11/2018 21:00 11.7 65 0.0 0 0.0 4.5 16.0 213
09/11/2018 21:10 11.7 66 0.0 0 0.0 4.7 16.8 218
09/11/2018 21:20 11.7 67 0.0 0 0.0 4.3 15.6 221
09/11/2018 21:30 11.5 68 0.0 0 0.0 4.5 16.2 214
09/11/2018 21:40 11.6 67 0.0 0 0.0 5.1 18.2 219
09/11/2018 21:50 11.4 69 0.0 0 0.0 5.2 18.6 219
09/11/2018 22:00 11.1 70 0.0 0 0.0 4.5 16.1 208
09/11/2018 22:10 11.0 71 0.0 0 0.0 4.8 17.1 215
09/11/2018 22:20 11.0 71 0.0 0 0.0 4.5 16.0 214
09/11/2018 22:30 11.3 70 0.0 0 0.0 3.3 11.7 176
09/11/2018 22:40 10.8 74 0.0 0 0.0 2.4 8.7 153
09/11/2018 22:50 11.0 73 0.0 0 0.0 3.3 11.9 194
09/11/2018 23:00 12.0 69 0.0 0 0.0 5.0 18.1 210
09/11/2018 23:10 12.3 68 0.0 0 0.0 6.3 22.8 215
09/11/2018 23:20 12.2 68 0.0 0 0.0 7.0 25.1 221
09/11/2018 23:30 12.1 68 0.0 0 0.0 7.2 25.9 219
09/11/2018 23:40 12.1 69 0.0 0 0.0 7.0 25.1 219
09/11/2018 23:50 12.2 68 0.0 0 0.0 7.0 25.0 216
Anterior Página 1 de 1 Siguiente

NOTA: Tipo de datos según el color:
   - Valores diarios o 10 minutos correctos
   - Valores diarios calculados a partir de un número de datos 10 minutos menor que 144 y mayor que 120, o de un número de datos semihorarios menor que 48 y mayor que 40 (caso de las estaciones de Riegos de Navarra y del MARM)
   - Valores diez minutos estimados


Contacto        Enlaces        Aviso legal